createdAt,value
2018-04-14T00:02:13.575Z,23.70
2018-04-14T00:04:41.883Z,25.67
2018-04-14T00:07:10.984Z,22.93
2018-04-14T00:09:39.185Z,20.23
2018-04-14T00:12:07.420Z,22.10
2018-04-14T00:14:35.717Z,20.77
2018-04-14T00:17:04.797Z,22.33
2018-04-14T00:19:33.041Z,19.53
2018-04-14T00:22:01.266Z,20.20
2018-04-14T00:24:29.546Z,22.90
2018-04-14T00:26:57.776Z,25.80
2018-04-14T00:29:26.830Z,26.13
2018-04-14T00:31:55.075Z,25.37
2018-04-14T00:34:23.259Z,23.00
2018-04-14T00:36:51.529Z,27.43
2018-04-14T00:39:19.743Z,21.83
2018-04-14T00:41:49.232Z,16.10
2018-04-14T00:44:17.469Z,16.87
2018-04-14T00:46:45.666Z,22.10
2018-04-14T00:49:13.954Z,26.50
2018-04-14T00:51:42.168Z,27.23
2018-04-14T00:54:10.374Z,25.33
2018-04-14T00:56:39.202Z,26.27
2018-04-14T00:59:08.008Z,26.20
2018-04-14T01:01:36.243Z,27.30
2018-04-14T01:04:05.177Z,27.30
2018-04-14T01:06:33.351Z,32.03
2018-04-14T01:09:01.537Z,31.27
2018-04-14T01:11:29.789Z,34.83
2018-04-14T01:13:57.984Z,32.43
2018-04-14T01:16:26.350Z,30.30
2018-04-14T01:18:54.676Z,25.07
2018-04-14T01:21:23.717Z,18.60
2018-04-14T01:23:52.888Z,19.87
2018-04-14T01:26:21.848Z,22.60
2018-04-14T01:28:50.917Z,34.67
2018-04-14T01:31:19.160Z,30.03
2018-04-14T01:33:47.373Z,30.07
2018-04-14T01:36:15.740Z,30.40
2018-04-14T01:38:44.718Z,34.83
2018-04-14T01:41:21.645Z,32.43
2018-04-14T01:43:49.943Z,35.53
2018-04-14T01:46:18.275Z,33.03
2018-04-14T01:48:46.509Z,34.70
2018-04-14T01:51:14.837Z,35.27
2018-04-14T01:53:43.073Z,30.30
2018-04-14T01:56:11.743Z,25.70
2018-04-14T01:58:40.201Z,21.10
2018-04-14T02:01:08.484Z,18.27
2018-04-14T02:03:36.735Z,16.93
2018-04-14T02:06:05.717Z,18.20
2018-04-14T02:08:34.917Z,20.43
2018-04-14T02:11:03.148Z,19.63
2018-04-14T02:13:31.452Z,19.87
2018-04-14T02:16:00.460Z,21.33
2018-04-14T02:18:28.723Z,19.80
2018-04-14T02:20:57.139Z,22.97
2018-04-14T02:23:25.524Z,22.33
2018-04-14T02:25:54.466Z,20.97
2018-04-14T02:28:22.764Z,24.00
2018-04-14T02:30:51.872Z,22.80
2018-04-14T02:33:20.136Z,20.37
2018-04-14T02:35:48.952Z,19.17
2018-04-14T02:38:17.226Z,16.87
2018-04-14T02:40:45.422Z,17.33
2018-04-14T02:43:13.682Z,19.27
2018-04-14T02:45:42.016Z,19.00
2018-04-14T02:48:11.057Z,18.00
2018-04-14T02:50:39.818Z,17.63
2018-04-14T02:53:09.180Z,20.60
2018-04-14T02:55:37.562Z,21.53
2018-04-14T02:58:05.782Z,23.23
2018-04-14T03:00:34.084Z,21.40
2018-04-14T03:03:02.374Z,22.93
2018-04-14T03:05:30.613Z,24.47
2018-04-14T03:07:58.799Z,21.90
2018-04-14T03:10:27.199Z,22.47
2018-04-14T03:12:55.401Z,26.90
2018-04-14T03:15:26.113Z,23.40
2018-04-14T03:17:54.389Z,24.47
2018-04-14T03:20:22.687Z,21.97
2018-04-14T03:22:51.827Z,20.40
2018-04-14T03:25:20.836Z,18.80
2018-04-14T03:27:49.969Z,16.87
2018-04-14T03:30:19.487Z,16.37
2018-04-14T03:32:47.774Z,14.13
2018-04-14T03:35:17.067Z,17.87
2018-04-14T03:37:45.249Z,19.30
2018-04-14T03:40:14.292Z,20.37
2018-04-14T03:42:43.625Z,19.07
2018-04-14T03:45:11.846Z,23.40
2018-04-14T03:47:40.898Z,26.10
2018-04-14T03:50:09.186Z,28.53
2018-04-14T03:52:37.448Z,30.90
2018-04-14T03:55:07.357Z,37.30
2018-04-14T03:57:35.640Z,30.67
2018-04-14T04:00:04.012Z,30.03
2018-04-14T04:02:32.299Z,28.73
2018-04-14T04:05:00.558Z,29.07
2018-04-14T04:07:28.758Z,24.43
2018-04-14T04:09:57.038Z,23.77
2018-04-14T04:12:25.406Z,28.43
2018-04-14T04:14:54.617Z,27.40
2018-04-14T04:17:22.896Z,31.20
2018-04-14T04:20:02.944Z,31.53
2018-04-14T04:22:43.054Z,33.30
2018-04-14T04:25:24.031Z,33.23
2018-04-14T04:27:52.352Z,32.43
2018-04-14T04:30:21.758Z,33.67
2018-04-14T04:32:49.958Z,32.17
2018-04-14T04:35:18.198Z,39.40
2018-04-14T04:37:46.583Z,36.17
2018-04-14T04:40:14.972Z,34.80
2018-04-14T04:42:43.438Z,32.90
2018-04-14T04:45:11.652Z,34.67
2018-04-14T04:47:41.725Z,35.80
2018-04-14T04:50:10.002Z,33.43
2018-04-14T04:52:38.252Z,36.50
2018-04-14T04:55:07.278Z,34.03
2018-04-14T04:57:35.791Z,36.53
2018-04-14T05:00:04.150Z,35.73
2018-04-14T05:02:32.428Z,38.03
2018-04-14T05:05:01.473Z,36.63
2018-04-14T05:07:29.688Z,38.37
2018-04-14T05:09:57.936Z,38.70
2018-04-14T05:12:26.194Z,36.83
2018-04-14T05:14:54.415Z,36.03
2018-04-14T05:17:22.703Z,31.97
2018-04-14T05:19:50.921Z,24.20
2018-04-14T05:22:19.313Z,20.27
2018-04-14T05:24:48.338Z,17.07
2018-04-14T05:27:16.608Z,16.20
2018-04-14T05:29:44.929Z,21.83
2018-04-14T05:32:13.142Z,23.03
2018-04-14T05:34:43.011Z,22.90
2018-04-14T05:37:11.235Z,26.03
2018-04-14T05:39:39.577Z,35.40
2018-04-14T05:42:07.822Z,30.43
2018-04-14T05:44:36.045Z,31.33
2018-04-14T05:47:04.265Z,32.27
2018-04-14T05:49:32.497Z,29.77
2018-04-14T05:52:01.545Z,37.07
2018-04-14T05:54:30.505Z,43.63
2018-04-14T05:56:59.697Z,31.93
2018-04-14T05:59:27.948Z,33.27
2018-04-14T06:01:56.828Z,34.57
2018-04-14T06:04:25.552Z,35.33
2018-04-14T06:06:53.774Z,37.80
2018-04-14T06:09:22.011Z,38.17
2018-04-14T06:11:50.224Z,37.67
2018-04-14T06:14:19.245Z,32.40
2018-04-14T06:16:47.471Z,33.33
2018-04-14T06:19:16.486Z,36.67
2018-04-14T06:21:44.788Z,43.30
2018-04-14T06:24:12.999Z,41.40
2018-04-14T06:26:41.276Z,43.30
2018-04-14T06:29:09.489Z,40.40
2018-04-14T06:31:38.535Z,42.20
2018-04-14T06:34:07.038Z,44.33
2018-04-14T06:36:35.289Z,52.30
2018-04-14T06:39:03.725Z,50.83
2018-04-14T06:41:32.153Z,53.40
2018-04-14T06:44:00.389Z,52.53
2018-04-14T06:46:29.041Z,52.00
2018-04-14T06:48:58.027Z,52.30
2018-04-14T06:51:26.333Z,51.57
2018-04-14T06:53:55.411Z,52.70
2018-04-14T06:56:24.427Z,51.33
2018-04-14T06:58:53.885Z,52.77
2018-04-14T07:01:22.257Z,51.37
2018-04-14T07:03:50.543Z,52.70
2018-04-14T07:06:19.241Z,49.03
2018-04-14T07:08:48.299Z,50.70
2018-04-14T07:11:17.221Z,49.23
2018-04-14T07:13:46.671Z,50.00
2018-04-14T07:16:16.283Z,48.00
2018-04-14T07:18:45.793Z,49.33
2018-04-14T07:21:14.833Z,45.63
2018-04-14T07:23:44.564Z,45.47
2018-04-14T07:26:13.091Z,44.67
2018-04-14T07:28:42.543Z,43.13
2018-04-14T07:31:10.865Z,44.13
2018-04-14T07:33:39.118Z,42.70
2018-04-14T07:36:07.490Z,42.13
2018-04-14T07:38:35.988Z,43.47
2018-04-14T07:41:05.252Z,45.57
2018-04-14T07:43:33.831Z,44.50
2018-04-14T07:46:02.142Z,44.77
2018-04-14T07:48:30.373Z,43.87
2018-04-14T07:50:58.608Z,41.87
2018-04-14T07:53:27.595Z,41.23
2018-04-14T07:55:55.886Z,40.70
2018-04-14T07:58:24.236Z,40.13
2018-04-14T08:00:54.248Z,39.97
2018-04-14T08:03:24.052Z,43.93
2018-04-14T08:05:53.356Z,39.53
2018-04-14T08:08:23.054Z,43.20
2018-04-14T08:10:51.372Z,44.83
2018-04-14T08:13:20.490Z,43.47
2018-04-14T08:15:49.560Z,41.13
2018-04-14T08:18:18.028Z,43.93
2018-04-14T08:20:46.347Z,38.97
2018-04-14T08:23:14.733Z,40.50
2018-04-14T08:25:43.776Z,38.77
2018-04-14T08:28:12.159Z,38.57
2018-04-14T08:30:40.541Z,37.70
2018-04-14T08:33:08.812Z,38.87
2018-04-14T08:35:37.091Z,38.60
2018-04-14T08:38:05.570Z,38.10
2018-04-14T08:40:34.258Z,36.40
2018-04-14T08:43:02.595Z,35.00
2018-04-14T08:45:31.592Z,36.40
2018-04-14T08:48:00.692Z,34.00
2018-04-14T08:50:28.973Z,35.07
2018-04-14T08:52:59.815Z,35.90
2018-04-14T08:55:28.228Z,34.67
2018-04-14T08:57:56.429Z,36.33
2018-04-14T09:00:25.537Z,31.13
2018-04-14T09:02:55.276Z,32.13
2018-04-14T09:05:23.610Z,32.93
2018-04-14T09:07:51.966Z,31.03
2018-04-14T09:10:21.072Z,32.30
2018-04-14T09:12:49.365Z,30.67
2018-04-14T09:15:18.571Z,30.23
2018-04-14T09:17:46.771Z,31.83
2018-04-14T09:20:15.311Z,33.33
2018-04-14T09:22:45.129Z,30.60
2018-04-14T09:25:13.492Z,28.13
2018-04-14T09:27:41.986Z,31.53
2018-04-14T09:30:10.261Z,33.47
2018-04-14T09:32:38.515Z,32.37
2018-04-14T09:35:06.769Z,33.47
2018-04-14T09:37:35.070Z,33.60
2018-04-14T09:40:03.474Z,34.30
2018-04-14T09:42:31.750Z,36.67
2018-04-14T09:44:59.942Z,32.07
2018-04-14T09:47:28.421Z,33.37
2018-04-14T09:49:56.627Z,30.27
2018-04-14T09:52:25.702Z,37.20
2018-04-14T09:54:54.010Z,37.80
2018-04-14T09:57:23.068Z,36.13
2018-04-14T09:59:52.079Z,36.17
2018-04-14T10:02:21.148Z,36.90
2018-04-14T10:04:49.458Z,38.77
2018-04-14T10:07:17.833Z,40.93
2018-04-14T10:09:46.032Z,41.63
2018-04-14T10:12:15.102Z,42.93
2018-04-14T10:14:43.320Z,42.20
2018-04-14T10:17:12.556Z,43.07
2018-04-14T10:19:40.846Z,50.70
2018-04-14T10:22:09.088Z,46.60
2018-04-14T10:24:37.404Z,44.97
2018-04-14T10:27:06.470Z,41.90
2018-04-14T10:29:34.718Z,42.50
2018-04-14T10:32:03.756Z,55.33
2018-04-14T10:34:32.144Z,52.60
2018-04-14T10:37:00.417Z,53.93
2018-04-14T10:39:28.665Z,54.17
2018-04-14T10:41:56.982Z,53.63
2018-04-14T10:44:26.071Z,38.87
2018-04-14T10:46:54.370Z,40.83
2018-04-14T10:49:23.474Z,37.60
2018-04-14T10:51:52.557Z,36.80
2018-04-14T10:54:20.963Z,36.23
2018-04-14T10:56:50.119Z,34.07
2018-04-14T10:59:18.952Z,36.00
2018-04-14T11:01:48.747Z,35.23
2018-04-14T11:04:17.130Z,38.57
2018-04-14T11:06:45.371Z,35.73
2018-04-14T11:09:13.884Z,34.20
2018-04-14T11:11:42.152Z,37.83
2018-04-14T11:14:10.374Z,42.40
2018-04-14T11:16:38.677Z,36.63
2018-04-14T11:19:06.900Z,37.10
2018-04-14T11:21:35.242Z,38.00
2018-04-14T11:24:03.635Z,35.10
2018-04-14T11:26:32.733Z,38.30
2018-04-14T11:29:01.321Z,37.30
2018-04-14T11:31:29.598Z,36.87
2018-04-14T11:33:57.986Z,35.93
2018-04-14T11:36:26.227Z,37.23
2018-04-14T11:38:54.492Z,34.63
2018-04-14T11:41:22.873Z,35.30
2018-04-14T11:43:51.887Z,36.00
2018-04-14T11:46:20.422Z,34.70
2018-04-14T11:48:50.143Z,36.80
2018-04-14T11:51:18.488Z,34.53
2018-04-14T11:53:46.884Z,34.37
2018-04-14T11:56:15.259Z,36.67
2018-04-14T11:58:43.624Z,34.03
2018-04-14T12:01:12.042Z,36.33
2018-04-14T12:03:40.313Z,33.93
2018-04-14T12:06:09.705Z,33.63
2018-04-14T12:08:37.958Z,35.07
2018-04-14T12:11:06.237Z,33.93
2018-04-14T12:13:34.621Z,34.80
2018-04-14T12:16:02.870Z,37.13
2018-04-14T12:18:31.180Z,38.83
2018-04-14T12:20:59.558Z,38.47
2018-04-14T12:23:27.809Z,37.80
2018-04-14T12:25:56.938Z,36.97
2018-04-14T12:28:25.544Z,38.70
2018-04-14T12:30:53.788Z,38.17
2018-04-14T12:33:22.151Z,38.67
2018-04-14T12:35:50.455Z,38.13
2018-04-14T12:38:18.747Z,37.87
2018-04-14T12:40:47.253Z,36.93
2018-04-14T12:43:15.599Z,36.77
2018-04-14T12:45:44.914Z,37.70
2018-04-14T12:48:13.257Z,37.77
2018-04-14T12:50:41.558Z,36.27
2018-04-14T12:53:09.838Z,36.90
2018-04-14T12:55:38.226Z,38.57
2018-04-14T12:58:06.698Z,38.97
2018-04-14T13:00:35.048Z,37.73
2018-04-14T13:03:03.445Z,37.50
2018-04-14T13:05:31.776Z,38.53
2018-04-14T13:08:00.807Z,38.60
2018-04-14T13:10:29.221Z,37.43
2018-04-14T13:12:57.494Z,37.17
2018-04-14T13:15:25.733Z,36.90
2018-04-14T13:17:54.765Z,38.40
2018-04-14T13:20:23.066Z,37.43
2018-04-14T13:22:51.347Z,38.03
2018-04-14T13:25:19.608Z,35.90
2018-04-14T13:27:47.806Z,37.07
2018-04-14T13:30:16.154Z,37.10
2018-04-14T13:32:44.569Z,37.77
2018-04-14T13:35:12.788Z,37.87
2018-04-14T13:37:41.108Z,38.87
2018-04-14T13:40:10.161Z,38.73
2018-04-14T13:42:38.480Z,34.10
2018-04-14T13:45:12.758Z,32.80
2018-04-14T13:47:41.615Z,31.03
2018-04-14T13:50:10.179Z,32.97
2018-04-14T13:52:39.498Z,32.57
2018-04-14T13:55:08.541Z,32.90
2018-04-14T13:57:36.969Z,33.23
2018-04-14T14:00:05.766Z,33.27
2018-04-14T14:02:34.067Z,32.23
2018-04-14T14:05:03.187Z,33.43
2018-04-14T14:07:31.459Z,33.30
2018-04-14T14:10:03.723Z,35.13
2018-04-14T14:12:32.936Z,34.40
2018-04-14T14:15:05.045Z,34.20
2018-04-14T14:17:36.736Z,32.90
2018-04-14T14:20:11.989Z,33.30
2018-04-14T14:22:40.555Z,32.97
2018-04-14T14:25:10.210Z,33.53
2018-04-14T14:27:38.582Z,35.93
2018-04-14T14:30:06.906Z,37.67
2018-04-14T14:32:35.327Z,37.00
2018-04-14T14:35:03.591Z,38.13
2018-04-14T14:37:32.825Z,38.87
2018-04-14T14:40:02.148Z,36.63
2018-04-14T14:42:31.399Z,37.33
2018-04-14T14:44:59.633Z,36.90
2018-04-14T14:47:44.323Z,37.67
2018-04-14T14:50:31.775Z,37.47
2018-04-14T14:53:04.501Z,37.37
2018-04-14T14:55:38.409Z,36.97
2018-04-14T14:58:13.573Z,41.17
2018-04-14T15:00:43.225Z,43.13
2018-04-14T15:03:28.153Z,52.00
2018-04-14T15:05:56.525Z,49.77
2018-04-14T15:08:25.357Z,45.67
2018-04-14T15:10:57.644Z,44.40
2018-04-14T15:13:26.561Z,44.17
2018-04-14T15:15:55.716Z,54.77
2018-04-14T15:18:24.735Z,57.50
2018-04-14T15:20:53.252Z,56.07
2018-04-14T15:23:21.726Z,57.57
2018-04-14T15:25:50.016Z,55.40
2018-04-14T15:28:19.047Z,59.43
2018-04-14T15:34:29.449Z,58.33
2018-04-14T15:36:57.696Z,52.73
2018-04-14T15:39:27.082Z,53.93
2018-04-14T15:41:55.423Z,48.00
2018-04-14T15:44:23.944Z,49.60
2018-04-14T15:46:53.310Z,46.23
2018-04-14T15:49:21.578Z,47.83
2018-04-14T15:51:51.690Z,47.90
2018-04-14T15:54:21.051Z,47.93
2018-04-14T15:56:49.303Z,47.60
2018-04-14T15:59:17.819Z,51.00
2018-04-14T16:01:47.627Z,49.17
2018-04-14T16:04:15.887Z,45.90
2018-04-14T16:06:44.166Z,45.17
2018-04-14T16:09:12.379Z,47.37
2018-04-14T16:11:42.157Z,47.87
2018-04-14T16:14:10.340Z,47.27
2018-04-14T16:16:38.751Z,47.93
2018-04-14T16:19:08.009Z,47.77
2018-04-14T16:21:37.023Z,47.30
2018-04-14T16:24:05.238Z,48.10
2018-04-14T16:26:34.397Z,46.30
2018-04-14T16:29:02.655Z,47.07
2018-04-14T16:31:30.865Z,46.73
2018-04-14T16:33:59.323Z,48.23
2018-04-14T16:36:27.610Z,47.70
2018-04-14T16:38:55.875Z,49.70
2018-04-14T16:41:24.158Z,49.40
2018-04-14T16:43:52.543Z,47.23
2018-04-14T16:46:20.785Z,49.53
2018-04-14T16:48:48.992Z,50.07
2018-04-14T16:51:17.371Z,51.37
2018-04-14T16:53:46.493Z,49.63
2018-04-14T16:56:15.500Z,50.90
2018-04-14T16:58:43.847Z,51.10
2018-04-14T17:01:12.048Z,53.33
2018-04-14T17:03:40.402Z,52.57
2018-04-14T17:06:08.644Z,52.73
2018-04-14T17:08:37.662Z,50.87
2018-04-14T17:11:05.976Z,49.27
2018-04-14T17:13:34.294Z,49.70
2018-04-14T17:16:02.712Z,48.07
2018-04-14T17:18:35.899Z,47.67
2018-04-14T17:21:04.363Z,48.20
2018-04-14T17:23:32.620Z,47.27
2018-04-14T17:26:01.618Z,48.30
2018-04-14T17:28:30.047Z,47.00
2018-04-14T17:30:58.310Z,46.60
2018-04-14T17:33:26.783Z,44.90
2018-04-14T17:35:55.204Z,43.77
2018-04-14T17:38:23.437Z,43.57
2018-04-14T17:40:52.010Z,42.27
2018-04-14T17:43:21.148Z,42.00
2018-04-14T17:45:50.656Z,43.53
2018-04-14T17:48:18.872Z,41.97
2018-04-14T17:50:47.409Z,42.40
2018-04-14T17:53:15.648Z,41.03
2018-04-14T17:55:43.890Z,41.47
2018-04-14T17:58:12.148Z,39.50
2018-04-14T18:00:40.500Z,42.40
2018-04-14T18:03:08.764Z,42.30
2018-04-14T18:05:37.820Z,43.97
2018-04-14T18:08:06.120Z,42.07
2018-04-14T18:10:35.216Z,42.63
2018-04-14T18:13:04.287Z,39.23
2018-04-14T18:15:32.581Z,38.67
2018-04-14T18:18:01.611Z,36.93
2018-04-14T18:20:29.825Z,37.87
2018-04-14T18:22:58.196Z,38.20
2018-04-14T18:25:26.505Z,37.90
2018-04-14T18:27:54.692Z,38.10
2018-04-14T18:30:23.746Z,37.57
2018-04-14T18:32:52.019Z,37.77
2018-04-14T18:35:20.326Z,35.60
2018-04-14T18:37:48.669Z,36.27
2018-04-14T18:40:17.542Z,35.80
2018-04-14T18:42:45.794Z,36.33
2018-04-14T18:45:14.120Z,34.63
2018-04-14T18:47:44.731Z,35.03
2018-04-14T18:50:12.963Z,33.30
2018-04-14T18:52:42.250Z,34.17
2018-04-14T18:55:10.609Z,33.70
2018-04-14T18:57:38.860Z,32.70
2018-04-14T19:00:07.861Z,32.70
2018-04-14T19:02:37.598Z,33.07
2018-04-14T19:05:06.531Z,34.30
2018-04-14T19:07:34.807Z,32.27
2018-04-14T19:10:03.045Z,33.73
2018-04-14T19:12:31.308Z,34.73
2018-04-14T19:14:59.608Z,36.43
2018-04-14T19:17:27.882Z,37.07
2018-04-14T19:19:56.156Z,37.90
2018-04-14T19:22:24.389Z,35.63
2018-04-14T19:24:53.454Z,35.67
2018-04-14T19:27:22.434Z,36.77
2018-04-14T19:29:50.663Z,38.43
2018-04-14T19:32:19.069Z,38.03
2018-04-14T19:34:47.357Z,37.63
2018-04-14T19:37:15.586Z,37.67
2018-04-14T19:39:43.803Z,36.00
2018-04-14T19:42:12.663Z,36.90
2018-04-14T19:44:42.330Z,42.70
2018-04-14T19:47:10.608Z,451.00
2018-04-14T19:49:39.086Z,239.43
2018-04-14T19:52:07.497Z,111.33
2018-04-14T19:54:37.396Z,105.10
2018-04-14T19:57:05.711Z,126.43
2018-04-14T19:59:34.135Z,102.67
2018-04-14T20:02:02.426Z,56.87
2018-04-14T20:04:30.640Z,40.07
2018-04-14T20:07:02.092Z,43.43
2018-04-14T20:09:30.350Z,43.27
2018-04-14T20:11:58.662Z,45.60
2018-04-14T20:14:27.772Z,47.50
2018-04-14T20:16:56.263Z,44.70
2018-04-14T20:19:24.491Z,43.80
2018-04-14T20:21:52.755Z,46.07
2018-04-14T20:24:21.018Z,45.47
2018-04-14T20:26:49.303Z,44.77
2018-04-14T20:29:17.637Z,48.10
2018-04-14T20:31:45.929Z,46.73
2018-04-14T20:34:15.410Z,48.40
2018-04-14T20:36:44.662Z,51.80
2018-04-14T20:39:13.785Z,51.73
2018-04-14T20:41:42.003Z,51.50
2018-04-14T20:44:11.005Z,52.53
2018-04-14T20:46:39.576Z,52.33
2018-04-14T20:49:07.869Z,54.20
2018-04-14T20:51:36.153Z,51.80
2018-04-14T20:54:04.551Z,52.87
2018-04-14T20:56:32.889Z,54.17
2018-04-14T20:59:01.968Z,57.70
2018-04-14T21:01:30.979Z,57.60
2018-04-14T21:03:59.550Z,57.13
2018-04-14T21:06:27.724Z,57.83
2018-04-14T21:08:56.813Z,58.97
2018-04-14T21:11:25.896Z,60.63
2018-04-14T21:13:54.108Z,60.63
2018-04-14T21:16:23.253Z,62.27
2018-04-14T21:18:51.570Z,61.60
2018-04-14T21:21:19.949Z,61.93
2018-04-14T21:23:48.987Z,67.37
2018-04-14T21:26:17.471Z,62.13
2018-04-14T21:28:45.747Z,61.53
2018-04-14T21:31:14.365Z,59.87
2018-04-14T21:33:42.676Z,56.77
2018-04-14T21:36:12.651Z,56.53
2018-04-14T21:38:41.033Z,56.60
2018-04-14T21:41:09.280Z,54.53
2018-04-14T21:43:38.321Z,52.17
2018-04-14T21:46:06.692Z,53.13
2018-04-14T21:48:35.073Z,53.53
2018-04-14T21:51:03.521Z,49.93
2018-04-14T21:53:31.971Z,48.93
2018-04-14T21:56:00.171Z,51.77
2018-04-14T21:58:29.126Z,53.67
2018-04-14T22:00:57.374Z,57.23
2018-04-14T22:03:25.760Z,55.13
2018-04-14T22:05:54.888Z,54.97
2018-04-14T22:08:23.089Z,56.63
2018-04-14T22:10:51.357Z,57.57
2018-04-14T22:13:19.625Z,62.60
2018-04-14T22:15:48.687Z,58.03
2018-04-14T22:18:17.171Z,58.47
2018-04-14T22:20:46.263Z,59.03
2018-04-14T22:23:14.471Z,59.13
2018-04-14T22:25:42.693Z,62.00
2018-04-14T22:28:11.258Z,61.60
2018-04-14T22:30:40.292Z,62.77
2018-04-14T22:33:08.700Z,65.67
2018-04-14T22:35:36.976Z,67.77
2018-04-14T22:38:05.334Z,72.60
2018-04-14T22:40:33.611Z,74.60
2018-04-14T22:43:01.870Z,73.80
2018-04-14T22:45:30.135Z,75.83
2018-04-14T22:47:59.082Z,76.13
2018-04-14T22:50:27.356Z,76.97
2018-04-14T22:52:55.595Z,75.10
2018-04-14T22:55:23.826Z,78.80
2018-04-14T22:57:52.069Z,80.87
2018-04-14T23:00:20.406Z,84.87
2018-04-14T23:02:49.553Z,76.13
2018-04-14T23:05:18.849Z,83.17
2018-04-14T23:07:47.112Z,84.97
2018-04-14T23:10:15.712Z,85.20
2018-04-14T23:12:44.103Z,80.83
2018-04-14T23:15:12.330Z,85.17
2018-04-14T23:17:40.576Z,88.87
2018-04-14T23:20:09.632Z,88.87
2018-04-14T23:22:37.923Z,90.50
2018-04-14T23:25:06.722Z,92.93
2018-04-14T23:27:35.441Z,93.03
2018-04-14T23:30:03.693Z,91.90
2018-04-14T23:32:32.277Z,91.47
2018-04-14T23:35:01.282Z,97.07
2018-04-14T23:37:30.271Z,92.60
2018-04-14T23:39:58.814Z,96.03
2018-04-14T23:42:27.045Z,95.77
2018-04-14T23:44:56.118Z,99.37
2018-04-14T23:47:25.518Z,95.63
2018-04-14T23:49:53.799Z,98.63
2018-04-14T23:52:22.177Z,105.00
2018-04-14T23:54:50.394Z,103.77
2018-04-14T23:57:18.722Z,108.10
2018-04-14T23:59:47.138Z,105.57
